sensor_id;sensor_type;location;lat;lon;timestamp;temperature;humidity
81800;DHT22;71195;52.528;5.704;2024-02-21T00:02:07;11.10;68.90
81800;DHT22;71195;52.528;5.704;2024-02-21T00:04:36;11.10;68.90
81800;DHT22;71195;52.528;5.704;2024-02-21T00:07:08;11.10;68.90
81800;DHT22;71195;52.528;5.704;2024-02-21T00:09:37;11.10;68.90
81800;DHT22;71195;52.528;5.704;2024-02-21T00:12:07;11.10;68.90
81800;DHT22;71195;52.528;5.704;2024-02-21T00:14:36;11.10;68.90
81800;DHT22;71195;52.528;5.704;2024-02-21T00:17:05;11.10;68.90
81800;DHT22;71195;52.528;5.704;2024-02-21T00:19:34;11.10;68.80
81800;DHT22;71195;52.528;5.704;2024-02-21T00:22:04;11.10;68.80
81800;DHT22;71195;52.528;5.704;2024-02-21T00:24:35;11.10;68.80
81800;DHT22;71195;52.528;5.704;2024-02-21T00:27:05;11.10;68.80
81800;DHT22;71195;52.528;5.704;2024-02-21T00:29:34;11.10;68.90
81800;DHT22;71195;52.528;5.704;2024-02-21T00:32:04;11.00;68.90
81800;DHT22;71195;52.528;5.704;2024-02-21T00:34:33;11.00;69.00
81800;DHT22;71195;52.528;5.704;2024-02-21T00:37:02;11.00;68.90
81800;DHT22;71195;52.528;5.704;2024-02-21T00:39:32;11.00;69.00
81800;DHT22;71195;52.528;5.704;2024-02-21T00:42:04;11.00;69.00
81800;DHT22;71195;52.528;5.704;2024-02-21T00:44:33;11.00;69.00
81800;DHT22;71195;52.528;5.704;2024-02-21T00:47:02;11.00;69.10
81800;DHT22;71195;52.528;5.704;2024-02-21T00:49:32;11.10;69.00
81800;DHT22;71195;52.528;5.704;2024-02-21T00:52:01;11.00;69.00
81800;DHT22;71195;52.528;5.704;2024-02-21T00:54:30;11.10;69.10
81800;DHT22;71195;52.528;5.704;2024-02-21T00:56:59;11.10;69.00
81800;DHT22;71195;52.528;5.704;2024-02-21T00:59:31;11.10;69.10
81800;DHT22;71195;52.528;5.704;2024-02-21T01:02:00;11.10;69.00
81800;DHT22;71195;52.528;5.704;2024-02-21T01:04:29;11.10;69.00
81800;DHT22;71195;52.528;5.704;2024-02-21T01:06:58;11.10;69.00
81800;DHT22;71195;52.528;5.704;2024-02-21T01:09:27;11.10;69.10
81800;DHT22;71195;52.528;5.704;2024-02-21T01:11:56;11.10;69.10
81800;DHT22;71195;52.528;5.704;2024-02-21T01:14:26;11.10;69.10
81800;DHT22;71195;52.528;5.704;2024-02-21T01:16:57;11.10;69.10
81800;DHT22;71195;52.528;5.704;2024-02-21T01:19:27;11.10;69.10
81800;DHT22;71195;52.528;5.704;2024-02-21T01:21:56;11.10;69.20
81800;DHT22;71195;52.528;5.704;2024-02-21T01:24:25;11.10;69.20
81800;DHT22;71195;52.528;5.704;2024-02-21T01:26:54;11.10;69.20
81800;DHT22;71195;52.528;5.704;2024-02-21T01:29:24;11.10;69.10
81800;DHT22;71195;52.528;5.704;2024-02-21T01:31:53;11.10;69.10
81800;DHT22;71195;52.528;5.704;2024-02-21T01:34:24;11.10;69.10
81800;DHT22;71195;52.528;5.704;2024-02-21T01:36:54;11.10;69.10
81800;DHT22;71195;52.528;5.704;2024-02-21T01:39:23;11.10;69.10
81800;DHT22;71195;52.528;5.704;2024-02-21T01:41:52;11.10;69.10
81800;DHT22;71195;52.528;5.704;2024-02-21T01:44:21;11.10;69.10
81800;DHT22;71195;52.528;5.704;2024-02-21T01:46:50;11.10;69.20
81800;DHT22;71195;52.528;5.704;2024-02-21T01:49:24;11.10;69.30
81800;DHT22;71195;52.528;5.704;2024-02-21T01:51:53;11.10;69.20
81800;DHT22;71195;52.528;5.704;2024-02-21T01:54:23;11.10;69.30
81800;DHT22;71195;52.528;5.704;2024-02-21T01:56:54;11.10;69.20
81800;DHT22;71195;52.528;5.704;2024-02-21T01:59:24;11.10;69.20
81800;DHT22;71195;52.528;5.704;2024-02-21T02:01:54;11.10;69.10
81800;DHT22;71195;52.528;5.704;2024-02-21T02:04:27;11.10;69.20
81800;DHT22;71195;52.528;5.704;2024-02-21T02:06:56;11.10;69.20
81800;DHT22;71195;52.528;5.704;2024-02-21T02:09:26;11.10;69.20
81800;DHT22;71195;52.528;5.704;2024-02-21T02:11:55;11.10;69.20
81800;DHT22;71195;52.528;5.704;2024-02-21T02:14:25;11.10;69.20
81800;DHT22;71195;52.528;5.704;2024-02-21T02:16:54;11.10;69.20
81800;DHT22;71195;52.528;5.704;2024-02-21T02:19:26;11.20;69.20
81800;DHT22;71195;52.528;5.704;2024-02-21T02:22:00;11.10;69.20
81800;DHT22;71195;52.528;5.704;2024-02-21T02:24:33;11.10;69.30
81800;DHT22;71195;52.528;5.704;2024-02-21T02:27:03;11.10;69.30
81800;DHT22;71195;52.528;5.704;2024-02-21T02:29:32;11.10;69.30
81800;DHT22;71195;52.528;5.704;2024-02-21T02:32:02;11.10;69.30
81800;DHT22;71195;52.528;5.704;2024-02-21T02:34:31;11.10;69.30
81800;DHT22;71195;52.528;5.704;2024-02-21T02:37:00;11.10;69.30
81800;DHT22;71195;52.528;5.704;2024-02-21T02:39:29;11.10;69.30
81800;DHT22;71195;52.528;5.704;2024-02-21T02:42:02;11.10;69.30
81800;DHT22;71195;52.528;5.704;2024-02-21T02:44:31;11.10;69.30
81800;DHT22;71195;52.528;5.704;2024-02-21T02:47:00;11.10;69.30
81800;DHT22;71195;52.528;5.704;2024-02-21T02:49:29;11.10;69.30
81800;DHT22;71195;52.528;5.704;2024-02-21T02:51:58;11.10;69.30
81800;DHT22;71195;52.528;5.704;2024-02-21T02:54:27;11.10;69.30
81800;DHT22;71195;52.528;5.704;2024-02-21T02:56:56;11.10;69.40
81800;DHT22;71195;52.528;5.704;2024-02-21T02:59:28;11.10;69.40
81800;DHT22;71195;52.528;5.704;2024-02-21T03:01:58;11.10;69.50
81800;DHT22;71195;52.528;5.704;2024-02-21T03:04:28;11.10;69.40
81800;DHT22;71195;52.528;5.704;2024-02-21T03:06:57;11.20;69.40
81800;DHT22;71195;52.528;5.704;2024-02-21T03:09:26;11.20;69.40
81800;DHT22;71195;52.528;5.704;2024-02-21T03:11:55;11.20;69.40
81800;DHT22;71195;52.528;5.704;2024-02-21T03:14:31;11.20;69.40
81800;DHT22;71195;52.528;5.704;2024-02-21T03:17:00;11.10;69.40
81800;DHT22;71195;52.528;5.704;2024-02-21T03:19:30;11.10;69.50
81800;DHT22;71195;52.528;5.704;2024-02-21T03:22:00;11.10;69.60
81800;DHT22;71195;52.528;5.704;2024-02-21T03:24:31;11.10;69.60
81800;DHT22;71195;52.528;5.704;2024-02-21T03:27:00;11.10;69.70
81800;DHT22;71195;52.528;5.704;2024-02-21T03:29:32;11.10;69.70
81800;DHT22;71195;52.528;5.704;2024-02-21T03:32:01;11.10;69.70
81800;DHT22;71195;52.528;5.704;2024-02-21T03:34:30;11.00;69.80
81800;DHT22;71195;52.528;5.704;2024-02-21T03:37:00;11.00;69.90
81800;DHT22;71195;52.528;5.704;2024-02-21T03:39:31;11.00;70.00
81800;DHT22;71195;52.528;5.704;2024-02-21T03:42:00;11.00;70.00
81800;DHT22;71195;52.528;5.704;2024-02-21T03:44:33;11.00;70.00
81800;DHT22;71195;52.528;5.704;2024-02-21T03:47:03;11.00;70.00
81800;DHT22;71195;52.528;5.704;2024-02-21T03:49:32;10.90;70.00
81800;DHT22;71195;52.528;5.704;2024-02-21T03:52:01;11.00;70.00
81800;DHT22;71195;52.528;5.704;2024-02-21T03:54:30;11.00;69.90
81800;DHT22;71195;52.528;5.704;2024-02-21T03:56:59;11.00;69.90
81800;DHT22;71195;52.528;5.704;2024-02-21T03:59:28;11.00;69.90
81800;DHT22;71195;52.528;5.704;2024-02-21T04:02:00;11.00;69.90
81800;DHT22;71195;52.528;5.704;2024-02-21T04:04:30;11.10;69.80
81800;DHT22;71195;52.528;5.704;2024-02-21T04:06:59;11.10;69.70
81800;DHT22;71195;52.528;5.704;2024-02-21T04:09:32;11.10;69.70
81800;DHT22;71195;52.528;5.704;2024-02-21T04:12:02;11.10;69.80
81800;DHT22;71195;52.528;5.704;2024-02-21T04:14:31;11.10;69.80
81800;DHT22;71195;52.528;5.704;2024-02-21T04:17:03;11.10;69.70
81800;DHT22;71195;52.528;5.704;2024-02-21T04:19:33;11.10;69.80
81800;DHT22;71195;52.528;5.704;2024-02-21T04:22:02;11.10;69.80
81800;DHT22;71195;52.528;5.704;2024-02-21T04:24:32;11.10;69.80
81800;DHT22;71195;52.528;5.704;2024-02-21T04:27:01;11.10;69.80
81800;DHT22;71195;52.528;5.704;2024-02-21T04:29:30;11.10;69.90
81800;DHT22;71195;52.528;5.704;2024-02-21T04:31:59;11.10;69.90
81800;DHT22;71195;52.528;5.704;2024-02-21T04:34:31;11.10;69.90
81800;DHT22;71195;52.528;5.704;2024-02-21T04:37:00;11.10;69.80
81800;DHT22;71195;52.528;5.704;2024-02-21T04:39:29;11.10;69.80
81800;DHT22;71195;52.528;5.704;2024-02-21T04:41:58;11.10;69.90
81800;DHT22;71195;52.528;5.704;2024-02-21T04:44:27;11.10;69.80
81800;DHT22;71195;52.528;5.704;2024-02-21T04:46:56;11.10;69.90
81800;DHT22;71195;52.528;5.704;2024-02-21T04:49:26;11.10;69.80
81800;DHT22;71195;52.528;5.704;2024-02-21T04:51:57;11.10;69.80
81800;DHT22;71195;52.528;5.704;2024-02-21T04:54:26;11.10;69.70
81800;DHT22;71195;52.528;5.704;2024-02-21T04:56:56;11.20;69.60
81800;DHT22;71195;52.528;5.704;2024-02-21T04:59:25;11.20;69.70
81800;DHT22;71195;52.528;5.704;2024-02-21T05:01:54;11.20;69.70
81800;DHT22;71195;52.528;5.704;2024-02-21T05:04:23;11.20;69.70
81800;DHT22;71195;52.528;5.704;2024-02-21T05:06:52;11.20;69.60
81800;DHT22;71195;52.528;5.704;2024-02-21T05:09:24;11.20;69.70
81800;DHT22;71195;52.528;5.704;2024-02-21T05:11:53;11.20;69.70
81800;DHT22;71195;52.528;5.704;2024-02-21T05:14:22;11.20;69.70
81800;DHT22;71195;52.528;5.704;2024-02-21T05:16:53;11.10;69.80
81800;DHT22;71195;52.528;5.704;2024-02-21T05:19:22;11.20;69.70
81800;DHT22;71195;52.528;5.704;2024-02-21T05:21:51;11.20;69.80
81800;DHT22;71195;52.528;5.704;2024-02-21T05:24:20;11.10;69.80
81800;DHT22;71195;52.528;5.704;2024-02-21T05:26:53;11.20;69.80
81800;DHT22;71195;52.528;5.704;2024-02-21T05:29:22;11.20;69.70
81800;DHT22;71195;52.528;5.704;2024-02-21T05:31:55;11.20;69.70
81800;DHT22;71195;52.528;5.704;2024-02-21T05:34:25;11.20;69.70
81800;DHT22;71195;52.528;5.704;2024-02-21T05:36:55;11.20;69.70
81800;DHT22;71195;52.528;5.704;2024-02-21T05:39:26;11.20;69.70
81800;DHT22;71195;52.528;5.704;2024-02-21T05:41:58;11.20;69.60
81800;DHT22;71195;52.528;5.704;2024-02-21T05:44:27;11.20;69.60
81800;DHT22;71195;52.528;5.704;2024-02-21T05:46:56;11.20;69.70
81800;DHT22;71195;52.528;5.704;2024-02-21T05:49:25;11.20;69.60
81800;DHT22;71195;52.528;5.704;2024-02-21T05:51:54;11.30;69.50
81800;DHT22;71195;52.528;5.704;2024-02-21T05:54:23;11.30;69.50
81800;DHT22;71195;52.528;5.704;2024-02-21T05:56:53;11.30;69.50
81800;DHT22;71195;52.528;5.704;2024-02-21T05:59:25;11.20;69.60
81800;DHT22;71195;52.528;5.704;2024-02-21T06:01:55;11.20;69.60
81800;DHT22;71195;52.528;5.704;2024-02-21T06:04:25;11.20;69.60
81800;DHT22;71195;52.528;5.704;2024-02-21T06:06:54;11.20;69.50
81800;DHT22;71195;52.528;5.704;2024-02-21T06:09:23;11.20;69.50
81800;DHT22;71195;52.528;5.704;2024-02-21T06:11:52;11.10;69.60
81800;DHT22;71195;52.528;5.704;2024-02-21T06:14:21;11.10;69.60
81800;DHT22;71195;52.528;5.704;2024-02-21T06:16:53;11.10;69.70
81800;DHT22;71195;52.528;5.704;2024-02-21T06:19:22;11.10;69.70
81800;DHT22;71195;52.528;5.704;2024-02-21T06:21:51;11.10;69.70
81800;DHT22;71195;52.528;5.704;2024-02-21T06:24:20;11.10;69.70
81800;DHT22;71195;52.528;5.704;2024-02-21T06:26:49;11.10;69.70
81800;DHT22;71195;52.528;5.704;2024-02-21T06:29:19;11.10;69.60
81800;DHT22;71195;52.528;5.704;2024-02-21T06:31:48;11.10;69.60
81800;DHT22;71195;52.528;5.704;2024-02-21T06:34:19;11.10;69.60
81800;DHT22;71195;52.528;5.704;2024-02-21T06:36:50;11.10;69.60
81800;DHT22;71195;52.528;5.704;2024-02-21T06:39:19;11.10;69.60
81800;DHT22;71195;52.528;5.704;2024-02-21T06:41:49;11.10;69.60
81800;DHT22;71195;52.528;5.704;2024-02-21T06:44:20;11.10;69.60
81800;DHT22;71195;52.528;5.704;2024-02-21T06:46:49;11.10;69.60
81800;DHT22;71195;52.528;5.704;2024-02-21T06:49:21;11.10;69.60
81800;DHT22;71195;52.528;5.704;2024-02-21T06:51:50;11.10;69.50
81800;DHT22;71195;52.528;5.704;2024-02-21T06:54:20;11.10;69.50
81800;DHT22;71195;52.528;5.704;2024-02-21T06:56:50;11.10;69.50
81800;DHT22;71195;52.528;5.704;2024-02-21T06:59:19;11.00;69.50
81800;DHT22;71195;52.528;5.704;2024-02-21T07:01:49;11.00;69.50
81800;DHT22;71195;52.528;5.704;2024-02-21T07:04:21;11.00;69.60
81800;DHT22;71195;52.528;5.704;2024-02-21T07:06:50;11.00;69.60
81800;DHT22;71195;52.528;5.704;2024-02-21T07:09:19;11.00;69.60
81800;DHT22;71195;52.528;5.704;2024-02-21T07:11:48;11.00;69.50
81800;DHT22;71195;52.528;5.704;2024-02-21T07:14:18;11.00;69.50
81800;DHT22;71195;52.528;5.704;2024-02-21T07:16:47;11.00;69.40
81800;DHT22;71195;52.528;5.704;2024-02-21T07:19:16;11.10;69.40
81800;DHT22;71195;52.528;5.704;2024-02-21T07:21:48;11.10;69.40
81800;DHT22;71195;52.528;5.704;2024-02-21T07:24:17;11.10;69.40
81800;DHT22;71195;52.528;5.704;2024-02-21T07:26:47;11.00;69.40
81800;DHT22;71195;52.528;5.704;2024-02-21T07:29:16;11.00;69.40
81800;DHT22;71195;52.528;5.704;2024-02-21T07:31:45;11.00;69.40
81800;DHT22;71195;52.528;5.704;2024-02-21T07:34:15;11.10;69.40
81800;DHT22;71195;52.528;5.704;2024-02-21T07:36:44;11.10;69.40
81800;DHT22;71195;52.528;5.704;2024-02-21T07:39:15;11.10;69.40
81800;DHT22;71195;52.528;5.704;2024-02-21T07:41:45;11.10;69.30
81800;DHT22;71195;52.528;5.704;2024-02-21T07:44:15;11.10;69.30
81800;DHT22;71195;52.528;5.704;2024-02-21T07:46:44;11.10;69.30
81800;DHT22;71195;52.528;5.704;2024-02-21T07:49:13;11.10;69.20
81800;DHT22;71195;52.528;5.704;2024-02-21T07:51:42;11.10;69.30
81800;DHT22;71195;52.528;5.704;2024-02-21T07:54:12;11.10;69.30
81800;DHT22;71195;52.528;5.704;2024-02-21T07:56:43;11.10;69.20
81800;DHT22;71195;52.528;5.704;2024-02-21T07:59:13;11.10;69.20
81800;DHT22;71195;52.528;5.704;2024-02-21T08:01:42;11.10;69.20
81800;DHT22;71195;52.528;5.704;2024-02-21T08:04:12;11.10;69.20
81800;DHT22;71195;52.528;5.704;2024-02-21T08:06:41;11.10;69.20
81800;DHT22;71195;52.528;5.704;2024-02-21T08:09:11;11.10;69.20
81800;DHT22;71195;52.528;5.704;2024-02-21T08:11:44;11.10;69.30
81800;DHT22;71195;52.528;5.704;2024-02-21T08:14:13;11.10;69.30
81800;DHT22;71195;52.528;5.704;2024-02-21T08:16:43;11.10;69.30
81800;DHT22;71195;52.528;5.704;2024-02-21T08:19:12;11.10;69.20
81800;DHT22;71195;52.528;5.704;2024-02-21T08:21:41;11.10;69.20
81800;DHT22;71195;52.528;5.704;2024-02-21T08:24:13;11.10;69.20
81800;DHT22;71195;52.528;5.704;2024-02-21T08:26:44;11.10;69.20
81800;DHT22;71195;52.528;5.704;2024-02-21T08:29:14;11.10;69.30
81800;DHT22;71195;52.528;5.704;2024-02-21T08:31:43;11.10;69.30
81800;DHT22;71195;52.528;5.704;2024-02-21T08:34:12;11.10;69.20
81800;DHT22;71195;52.528;5.704;2024-02-21T08:36:41;11.10;69.30
81800;DHT22;71195;52.528;5.704;2024-02-21T08:39:11;11.10;69.30
81800;DHT22;71195;52.528;5.704;2024-02-21T08:41:45;11.10;69.20
81800;DHT22;71195;52.528;5.704;2024-02-21T08:44:14;11.10;69.20
81800;DHT22;71195;52.528;5.704;2024-02-21T08:46:43;11.10;69.10
81800;DHT22;71195;52.528;5.704;2024-02-21T08:49:13;11.10;69.20
81800;DHT22;71195;52.528;5.704;2024-02-21T08:51:42;11.10;69.20
81800;DHT22;71195;52.528;5.704;2024-02-21T08:54:12;11.10;69.10
81800;DHT22;71195;52.528;5.704;2024-02-21T08:56:42;11.10;69.10
81800;DHT22;71195;52.528;5.704;2024-02-21T08:59:13;11.10;69.10
81800;DHT22;71195;52.528;5.704;2024-02-21T09:01:43;11.10;69.00
81800;DHT22;71195;52.528;5.704;2024-02-21T09:04:13;11.10;69.10
81800;DHT22;71195;52.528;5.704;2024-02-21T09:06:42;11.10;69.10
81800;DHT22;71195;52.528;5.704;2024-02-21T09:09:12;11.10;69.00
81800;DHT22;71195;52.528;5.704;2024-02-21T09:11:41;11.10;69.00
81800;DHT22;71195;52.528;5.704;2024-02-21T09:14:13;11.10;69.10
81800;DHT22;71195;52.528;5.704;2024-02-21T09:16:42;11.20;69.00
81800;DHT22;71195;52.528;5.704;2024-02-21T09:19:12;11.20;69.00
81800;DHT22;71195;52.528;5.704;2024-02-21T09:21:41;11.20;69.00
81800;DHT22;71195;52.528;5.704;2024-02-21T09:24:10;11.20;69.00
81800;DHT22;71195;52.528;5.704;2024-02-21T09:26:39;11.30;68.90
81800;DHT22;71195;52.528;5.704;2024-02-21T09:29:08;11.40;68.90
81800;DHT22;71195;52.528;5.704;2024-02-21T09:31:40;11.30;68.80
81800;DHT22;71195;52.528;5.704;2024-02-21T09:34:09;11.30;68.80
81800;DHT22;71195;52.528;5.704;2024-02-21T09:36:39;11.40;68.80
81800;DHT22;71195;52.528;5.704;2024-02-21T09:39:08;11.30;68.70
81800;DHT22;71195;52.528;5.704;2024-02-21T09:41:45;11.40;68.80
81800;DHT22;71195;52.528;5.704;2024-02-21T09:44:19;11.40;68.70
81800;DHT22;71195;52.528;5.704;2024-02-21T09:47:01;11.50;68.60
81800;DHT22;71195;52.528;5.704;2024-02-21T09:49:32;11.50;68.60
81800;DHT22;71195;52.528;5.704;2024-02-21T09:52:05;11.50;68.70
81800;DHT22;71195;52.528;5.704;2024-02-21T09:54:35;11.50;68.70
81800;DHT22;71195;52.528;5.704;2024-02-21T09:57:05;11.50;68.60
81800;DHT22;71195;52.528;5.704;2024-02-21T09:59:34;11.50;68.60
81800;DHT22;71195;52.528;5.704;2024-02-21T10:02:06;11.50;68.60
81800;DHT22;71195;52.528;5.704;2024-02-21T10:04:37;11.50;68.50
81800;DHT22;71195;52.528;5.704;2024-02-21T10:07:08;11.50;68.60
81800;DHT22;71195;52.528;5.704;2024-02-21T10:09:38;11.50;68.60
81800;DHT22;71195;52.528;5.704;2024-02-21T10:12:08;11.50;68.50
81800;DHT22;71195;52.528;5.704;2024-02-21T10:14:38;11.50;68.60
81800;DHT22;71195;52.528;5.704;2024-02-21T10:17:16;11.60;68.50
81800;DHT22;71195;52.528;5.704;2024-02-21T10:19:46;11.70;68.50
81800;DHT22;71195;52.528;5.704;2024-02-21T10:22:18;11.70;68.40
81800;DHT22;71195;52.528;5.704;2024-02-21T10:24:47;11.70;68.40
81800;DHT22;71195;52.528;5.704;2024-02-21T10:27:16;11.70;68.40
81800;DHT22;71195;52.528;5.704;2024-02-21T10:29:49;11.70;68.30
81800;DHT22;71195;52.528;5.704;2024-02-21T10:32:21;11.70;68.30
81800;DHT22;71195;52.528;5.704;2024-02-21T10:35:01;11.70;68.30
81800;DHT22;71195;52.528;5.704;2024-02-21T10:37:30;11.70;68.30
81800;DHT22;71195;52.528;5.704;2024-02-21T10:40:01;11.70;68.40
81800;DHT22;71195;52.528;5.704;2024-02-21T10:42:31;11.70;68.30
81800;DHT22;71195;52.528;5.704;2024-02-21T10:45:05;11.70;68.30
81800;DHT22;71195;52.528;5.704;2024-02-21T10:47:40;11.70;68.30
81800;DHT22;71195;52.528;5.704;2024-02-21T10:50:12;11.70;68.30
81800;DHT22;71195;52.528;5.704;2024-02-21T10:52:51;11.70;68.20
81800;DHT22;71195;52.528;5.704;2024-02-21T10:55:29;11.70;68.20
81800;DHT22;71195;52.528;5.704;2024-02-21T10:58:02;11.70;68.20
81800;DHT22;71195;52.528;5.704;2024-02-21T11:00:33;11.70;68.20
81800;DHT22;71195;52.528;5.704;2024-02-21T11:03:06;11.70;68.10
81800;DHT22;71195;52.528;5.704;2024-02-21T11:05:35;11.70;68.00
81800;DHT22;71195;52.528;5.704;2024-02-21T11:08:06;11.70;68.00
81800;DHT22;71195;52.528;5.704;2024-02-21T11:10:36;11.70;68.00
81800;DHT22;71195;52.528;5.704;2024-02-21T11:13:07;11.70;67.90
81800;DHT22;71195;52.528;5.704;2024-02-21T11:15:36;11.70;67.80
81800;DHT22;71195;52.528;5.704;2024-02-21T11:18:08;11.70;67.80
81800;DHT22;71195;52.528;5.704;2024-02-21T11:20:38;11.70;67.80
81800;DHT22;71195;52.528;5.704;2024-02-21T11:23:07;11.70;67.80
81800;DHT22;71195;52.528;5.704;2024-02-21T11:25:37;11.70;67.80
81800;DHT22;71195;52.528;5.704;2024-02-21T11:28:06;11.70;67.80
81800;DHT22;71195;52.528;5.704;2024-02-21T11:30:36;11.70;67.70
81800;DHT22;71195;52.528;5.704;2024-02-21T11:33:08;11.80;67.60
81800;DHT22;71195;52.528;5.704;2024-02-21T11:35:38;11.80;67.60
81800;DHT22;71195;52.528;5.704;2024-02-21T11:38:11;11.90;67.60
81800;DHT22;71195;52.528;5.704;2024-02-21T11:40:44;11.90;67.50
81800;DHT22;71195;52.528;5.704;2024-02-21T11:43:14;11.90;67.40
81800;DHT22;71195;52.528;5.704;2024-02-21T11:45:43;11.90;67.40
81800;DHT22;71195;52.528;5.704;2024-02-21T11:48:15;11.90;67.30
81800;DHT22;71195;52.528;5.704;2024-02-21T11:50:53;11.90;67.20
81800;DHT22;71195;52.528;5.704;2024-02-21T11:53:22;11.90;67.30
81800;DHT22;71195;52.528;5.704;2024-02-21T11:55:56;11.90;67.30
81800;DHT22;71195;52.528;5.704;2024-02-21T11:58:26;11.90;67.30
81800;DHT22;71195;52.528;5.704;2024-02-21T12:00:57;11.90;67.30
81800;DHT22;71195;52.528;5.704;2024-02-21T12:03:31;11.90;67.30
81800;DHT22;71195;52.528;5.704;2024-02-21T12:06:01;11.90;67.20
81800;DHT22;71195;52.528;5.704;2024-02-21T12:08:41;11.90;67.20
81800;DHT22;71195;52.528;5.704;2024-02-21T12:11:19;11.90;67.30
81800;DHT22;71195;52.528;5.704;2024-02-21T12:13:59;11.90;67.20
81800;DHT22;71195;52.528;5.704;2024-02-21T12:16:30;11.90;67.20
81800;DHT22;71195;52.528;5.704;2024-02-21T12:19:01;11.90;67.20
81800;DHT22;71195;52.528;5.704;2024-02-21T12:21:32;11.90;67.20
81800;DHT22;71195;52.528;5.704;2024-02-21T12:24:12;11.90;67.20
81800;DHT22;71195;52.528;5.704;2024-02-21T12:26:41;11.90;67.20
81800;DHT22;71195;52.528;5.704;2024-02-21T12:29:11;11.90;67.20
81800;DHT22;71195;52.528;5.704;2024-02-21T12:31:40;11.90;67.20
81800;DHT22;71195;52.528;5.704;2024-02-21T12:34:12;11.90;67.20
81800;DHT22;71195;52.528;5.704;2024-02-21T12:36:41;11.90;67.20
81800;DHT22;71195;52.528;5.704;2024-02-21T12:39:11;11.90;67.20
81800;DHT22;71195;52.528;5.704;2024-02-21T12:41:41;11.90;67.20
81800;DHT22;71195;52.528;5.704;2024-02-21T12:44:10;12.00;67.10
81800;DHT22;71195;52.528;5.704;2024-02-21T12:46:40;12.00;67.10
81800;DHT22;71195;52.528;5.704;2024-02-21T12:49:11;12.10;67.00
81800;DHT22;71195;52.528;5.704;2024-02-21T12:51:42;12.10;66.90
81800;DHT22;71195;52.528;5.704;2024-02-21T12:54:12;12.10;66.90
81800;DHT22;71195;52.528;5.704;2024-02-21T12:56:42;12.20;66.90
81800;DHT22;71195;52.528;5.704;2024-02-21T12:59:11;12.20;66.80
81800;DHT22;71195;52.528;5.704;2024-02-21T13:01:40;12.30;66.70
81800;DHT22;71195;52.528;5.704;2024-02-21T13:04:12;12.30;66.60
81800;DHT22;71195;52.528;5.704;2024-02-21T13:06:41;12.40;66.60
81800;DHT22;71195;52.528;5.704;2024-02-21T13:09:11;12.40;66.60
81800;DHT22;71195;52.528;5.704;2024-02-21T13:11:42;12.50;66.60
81800;DHT22;71195;52.528;5.704;2024-02-21T13:14:12;12.40;66.60
81800;DHT22;71195;52.528;5.704;2024-02-21T13:16:41;12.30;66.60
81800;DHT22;71195;52.528;5.704;2024-02-21T13:19:13;12.30;66.70
81800;DHT22;71195;52.528;5.704;2024-02-21T13:21:43;12.30;66.60
81800;DHT22;71195;52.528;5.704;2024-02-21T13:24:12;12.30;66.60
81800;DHT22;71195;52.528;5.704;2024-02-21T13:26:41;12.30;66.60
81800;DHT22;71195;52.528;5.704;2024-02-21T13:29:11;12.30;66.50
81800;DHT22;71195;52.528;5.704;2024-02-21T13:31:40;12.30;66.50
81800;DHT22;71195;52.528;5.704;2024-02-21T13:34:11;12.30;66.50
81800;DHT22;71195;52.528;5.704;2024-02-21T13:36:41;12.30;66.50
81800;DHT22;71195;52.528;5.704;2024-02-21T13:39:10;12.30;66.50
81800;DHT22;71195;52.528;5.704;2024-02-21T13:41:42;12.30;66.50
81800;DHT22;71195;52.528;5.704;2024-02-21T13:44:11;12.30;66.40
81800;DHT22;71195;52.528;5.704;2024-02-21T13:46:40;12.30;66.30
81800;DHT22;71195;52.528;5.704;2024-02-21T13:49:12;12.30;66.30
81800;DHT22;71195;52.528;5.704;2024-02-21T13:51:41;12.30;66.30
81800;DHT22;71195;52.528;5.704;2024-02-21T13:54:11;12.30;66.40
81800;DHT22;71195;52.528;5.704;2024-02-21T13:56:43;12.30;66.30
81800;DHT22;71195;52.528;5.704;2024-02-21T13:59:12;12.30;66.30
81800;DHT22;71195;52.528;5.704;2024-02-21T14:01:42;12.40;66.30
81800;DHT22;71195;52.528;5.704;2024-02-21T14:04:14;12.30;66.30
81800;DHT22;71195;52.528;5.704;2024-02-21T14:06:43;12.30;66.30
81800;DHT22;71195;52.528;5.704;2024-02-21T14:09:12;12.30;66.30
81800;DHT22;71195;52.528;5.704;2024-02-21T14:11:42;12.30;66.30
81800;DHT22;71195;52.528;5.704;2024-02-21T14:14:11;12.30;66.40
81800;DHT22;71195;52.528;5.704;2024-02-21T14:16:41;12.30;66.40
81800;DHT22;71195;52.528;5.704;2024-02-21T14:19:10;12.30;66.40
81800;DHT22;71195;52.528;5.704;2024-02-21T14:21:42;12.20;66.40
81800;DHT22;71195;52.528;5.704;2024-02-21T14:24:11;12.20;66.50
81800;DHT22;71195;52.528;5.704;2024-02-21T14:26:41;12.20;66.50
81800;DHT22;71195;52.528;5.704;2024-02-21T14:29:10;12.20;66.50
81800;DHT22;71195;52.528;5.704;2024-02-21T14:31:39;12.20;66.50
81800;DHT22;71195;52.528;5.704;2024-02-21T14:34:08;12.20;66.50
81800;DHT22;71195;52.528;5.704;2024-02-21T14:36:38;12.20;66.40
81800;DHT22;71195;52.528;5.704;2024-02-21T14:39:09;12.20;66.50
81800;DHT22;71195;52.528;5.704;2024-02-21T14:41:39;12.20;66.40
81800;DHT22;71195;52.528;5.704;2024-02-21T14:44:09;12.20;66.40
81800;DHT22;71195;52.528;5.704;2024-02-21T14:46:40;12.20;66.40
81800;DHT22;71195;52.528;5.704;2024-02-21T14:49:10;12.20;66.40
81800;DHT22;71195;52.528;5.704;2024-02-21T14:51:39;12.10;66.50
81800;DHT22;71195;52.528;5.704;2024-02-21T14:54:11;12.10;66.40
81800;DHT22;71195;52.528;5.704;2024-02-21T14:56:40;12.10;66.40
81800;DHT22;71195;52.528;5.704;2024-02-21T14:59:09;12.20;66.30
81800;DHT22;71195;52.528;5.704;2024-02-21T15:01:39;12.20;66.40
81800;DHT22;71195;52.528;5.704;2024-02-21T15:04:08;12.20;66.30
81800;DHT22;71195;52.528;5.704;2024-02-21T15:06:37;12.20;66.30
81800;DHT22;71195;52.528;5.704;2024-02-21T15:09:06;12.10;66.40
81800;DHT22;71195;52.528;5.704;2024-02-21T15:11:38;12.10;66.30
81800;DHT22;71195;52.528;5.704;2024-02-21T15:14:09;12.10;66.30
81800;DHT22;71195;52.528;5.704;2024-02-21T15:16:38;12.10;66.40
81800;DHT22;71195;52.528;5.704;2024-02-21T15:19:07;12.10;66.30
81800;DHT22;71195;52.528;5.704;2024-02-21T15:21:36;12.10;66.30
81800;DHT22;71195;52.528;5.704;2024-02-21T15:24:05;12.10;66.30
81800;DHT22;71195;52.528;5.704;2024-02-21T15:26:35;12.10;66.30
81800;DHT22;71195;52.528;5.704;2024-02-21T15:29:07;12.10;66.40
81800;DHT22;71195;52.528;5.704;2024-02-21T15:31:36;12.00;66.40
81800;DHT22;71195;52.528;5.704;2024-02-21T15:34:09;12.00;66.50
81800;DHT22;71195;52.528;5.704;2024-02-21T15:36:39;12.00;66.50
81800;DHT22;71195;52.528;5.704;2024-02-21T15:39:08;11.90;66.60
81800;DHT22;71195;52.528;5.704;2024-02-21T15:41:37;11.90;66.70
81800;DHT22;71195;52.528;5.704;2024-02-21T15:44:09;11.90;66.80
81800;DHT22;71195;52.528;5.704;2024-02-21T15:46:38;11.90;66.80
81800;DHT22;71195;52.528;5.704;2024-02-21T15:49:08;11.90;66.80